createdAt,value
2019-06-27T03:34:23.241Z,22.21
2019-06-27T03:36:53.491Z,22.20
2019-06-27T03:39:23.748Z,22.23
2019-06-27T03:41:54.029Z,22.26
2019-06-27T03:44:24.270Z,22.27
2019-06-27T03:46:54.455Z,22.29
2019-06-27T03:49:25.478Z,22.32
2019-06-27T03:51:56.656Z,22.34
2019-06-27T03:54:26.896Z,22.34
2019-06-27T03:56:57.948Z,22.35
2019-06-27T03:59:28.196Z,22.36
2019-06-27T04:01:58.448Z,22.28
2019-06-27T04:04:51.667Z,22.28
2019-06-27T04:07:47.450Z,22.18
2019-06-27T04:10:45.193Z,22.14
2019-06-27T04:13:40.908Z,22.09
2019-06-27T04:16:38.031Z,22.02
2019-06-27T04:19:35.225Z,22.04
2019-06-27T04:22:37.708Z,22.06
2019-06-27T04:25:33.273Z,22.06
2019-06-27T04:28:30.184Z,22.06
2019-06-27T04:31:27.002Z,22.09
2019-06-27T04:34:23.367Z,22.15
2019-06-27T04:37:20.046Z,22.16
2019-06-27T04:40:15.508Z,22.17
2019-06-27T04:43:13.128Z,22.20
2019-06-27T04:46:09.480Z,22.22
2019-06-27T04:49:06.016Z,22.28
2019-06-27T04:52:01.518Z,22.39
2019-06-27T04:55:02.879Z,22.42
2019-06-27T04:57:53.999Z,22.42
2019-06-27T05:00:51.938Z,22.47
2019-06-27T05:03:46.591Z,22.50
2019-06-27T05:06:43.199Z,22.54
2019-06-27T05:09:38.728Z,22.55
2019-06-27T05:12:36.612Z,22.57
2019-06-27T05:15:33.208Z,22.62
2019-06-27T05:18:29.136Z,22.63
2019-06-27T05:21:24.694Z,22.66
2019-06-27T05:24:22.303Z,22.67
2019-06-27T05:27:18.698Z,22.73
2019-06-27T05:30:14.440Z,22.78
2019-06-27T05:33:12.421Z,22.83
2019-06-27T05:36:08.931Z,22.90
2019-06-27T05:39:06.856Z,22.94
2019-06-27T05:42:02.335Z,23.02
2019-06-27T05:44:59.914Z,23.09
2019-06-27T05:47:56.632Z,23.11
2019-06-27T05:50:52.217Z,23.19
2019-06-27T05:53:49.729Z,23.26
2019-06-27T05:56:45.229Z,23.36
2019-06-27T05:59:42.136Z,23.43
2019-06-27T06:02:37.925Z,23.50
2019-06-27T06:05:35.713Z,23.59
2019-06-27T06:08:32.034Z,23.68
2019-06-27T06:11:29.394Z,23.71
2019-06-27T06:14:28.049Z,23.74
2019-06-27T06:17:23.819Z,23.78
2019-06-27T06:20:21.552Z,23.88
2019-06-27T06:23:16.986Z,24.00
2019-06-27T06:26:13.023Z,24.08
2019-06-27T06:29:09.244Z,24.19
2019-06-27T06:32:06.084Z,24.30
2019-06-27T06:35:04.052Z,24.41
2019-06-27T06:38:01.219Z,24.53
2019-06-27T06:40:59.080Z,24.66
2019-06-27T06:43:54.659Z,24.74
2019-06-27T06:46:51.182Z,24.85
2019-06-27T06:49:46.937Z,24.92
2019-06-27T06:52:43.928Z,24.95
2019-06-27T06:55:42.881Z,25.01
2019-06-27T06:58:36.846Z,25.09
2019-06-27T07:01:33.468Z,25.12
2019-06-27T07:04:28.948Z,25.20
2019-06-27T07:07:25.693Z,25.42
2019-06-27T07:10:22.396Z,25.63
2019-06-27T07:13:20.125Z,25.77
2019-06-27T07:16:16.649Z,25.89
2019-06-27T07:19:12.424Z,25.94
2019-06-27T07:22:08.103Z,26.02
2019-06-27T07:25:06.106Z,26.09
2019-06-27T07:28:01.663Z,26.14
2019-06-27T07:30:58.363Z,26.23
2019-06-27T07:33:54.166Z,26.35
2019-06-27T07:36:51.692Z,26.56
2019-06-27T07:39:51.514Z,26.80
2019-06-27T07:42:49.380Z,27.02
2019-06-27T07:45:46.259Z,27.13
2019-06-27T07:48:42.860Z,27.22
2019-06-27T07:51:38.578Z,27.25
2019-06-27T07:54:36.335Z,27.25
2019-06-27T07:57:33.888Z,27.32
2019-06-27T08:00:29.501Z,27.36
2019-06-27T08:03:26.092Z,27.41
2019-06-27T08:06:23.782Z,27.43
2019-06-27T08:09:20.314Z,27.50
2019-06-27T08:12:16.943Z,27.57
2019-06-27T08:15:12.212Z,27.75
2019-06-27T08:18:08.807Z,27.84
2019-06-27T08:21:04.440Z,27.91
2019-06-27T08:24:00.764Z,27.93
2019-06-27T08:26:57.417Z,27.95
2019-06-27T08:29:54.035Z,28.05
2019-06-27T08:32:50.889Z,28.10
2019-06-27T08:35:46.396Z,28.13
2019-06-27T08:38:43.200Z,28.25
2019-06-27T08:41:39.842Z,28.37
2019-06-27T08:44:37.106Z,28.54
2019-06-27T08:47:33.955Z,28.80
2019-06-27T08:50:29.749Z,28.82
2019-06-27T08:53:27.361Z,28.88
2019-06-27T08:56:25.128Z,28.92
2019-06-27T08:59:21.983Z,28.86
2019-06-27T09:02:17.612Z,28.91
2019-06-27T09:05:14.509Z,28.95
2019-06-27T09:08:10.561Z,28.99
2019-06-27T09:11:07.391Z,29.15
2019-06-27T09:14:03.526Z,29.19
2019-06-27T09:17:01.148Z,29.38
2019-06-27T09:19:59.022Z,29.56
2019-06-27T09:22:55.678Z,29.68
2019-06-27T09:25:51.336Z,29.70
2019-06-27T09:28:48.148Z,29.60
2019-06-27T09:31:43.010Z,29.51
2019-06-27T09:34:39.666Z,29.51
2019-06-27T09:37:36.216Z,29.56
2019-06-27T09:40:33.014Z,29.65
2019-06-27T09:43:32.390Z,29.85
2019-06-27T09:46:29.035Z,30.02
2019-06-27T09:49:24.713Z,30.17
2019-06-27T09:52:21.438Z,30.20
2019-06-27T09:55:17.242Z,30.22
2019-06-27T09:58:16.232Z,30.24
2019-06-27T10:01:11.564Z,30.21
2019-06-27T10:04:08.690Z,30.47
2019-06-27T10:07:04.166Z,30.47
2019-06-27T10:10:00.115Z,30.50
2019-06-27T10:12:55.731Z,30.40
2019-06-27T10:15:52.558Z,30.30
2019-06-27T10:18:50.109Z,30.27
2019-06-27T10:21:46.690Z,30.27
2019-06-27T10:24:42.097Z,30.34
2019-06-27T10:27:44.352Z,30.42
2019-06-27T10:30:40.165Z,30.47
2019-06-27T10:33:37.611Z,30.53
2019-06-27T10:36:33.307Z,30.57
2019-06-27T10:39:30.155Z,30.59
2019-06-27T10:42:26.197Z,30.62
2019-06-27T10:45:22.734Z,30.66
2019-06-27T10:48:20.296Z,30.75
2019-06-27T10:51:16.835Z,30.85
2019-06-27T10:54:12.400Z,31.00
2019-06-27T10:57:09.434Z,30.97
2019-06-27T11:00:06.143Z,31.01
2019-06-27T11:03:14.908Z,30.96
2019-06-27T11:05:58.713Z,31.08
2019-06-27T11:08:55.275Z,31.09
2019-06-27T11:11:50.275Z,31.07
2019-06-27T11:14:58.623Z,31.07
2019-06-27T11:17:44.658Z,31.16
2019-06-27T11:20:42.667Z,31.23
2019-06-27T11:23:38.531Z,31.41
2019-06-27T11:26:35.325Z,31.55
2019-06-27T11:29:32.014Z,31.73
2019-06-27T11:32:28.450Z,31.80
2019-06-27T11:35:23.575Z,31.85
2019-06-27T11:38:21.476Z,31.92
2019-06-27T11:41:17.044Z,32.03
2019-06-27T11:44:13.898Z,32.10
2019-06-27T11:47:09.882Z,32.19
2019-06-27T11:50:07.545Z,32.24
2019-06-27T11:53:02.894Z,32.26
2019-06-27T11:55:59.193Z,32.29
2019-06-27T11:58:57.095Z,32.21
2019-06-27T12:01:53.640Z,31.98
2019-06-27T12:04:48.641Z,31.99
2019-06-27T12:07:45.377Z,31.75
2019-06-27T12:10:40.939Z,31.78
2019-06-27T12:13:37.701Z,31.94
2019-06-27T12:16:33.377Z,32.02
2019-06-27T12:19:31.033Z,32.22
2019-06-27T12:22:26.609Z,32.32
2019-06-27T12:25:24.815Z,32.58
2019-06-27T12:28:20.317Z,32.70
2019-06-27T12:31:21.059Z,32.84
2019-06-27T12:34:12.387Z,32.79
2019-06-27T12:37:10.031Z,32.65
2019-06-27T12:40:06.745Z,32.74
2019-06-27T12:43:04.465Z,32.95
2019-06-27T12:46:00.264Z,32.86
2019-06-27T12:48:57.251Z,32.56
2019-06-27T12:51:54.954Z,32.45
2019-06-27T12:54:51.470Z,32.64
2019-06-27T12:57:47.285Z,32.69
2019-06-27T13:00:43.932Z,32.78
2019-06-27T13:03:40.710Z,33.01
2019-06-27T13:06:37.312Z,33.11
2019-06-27T13:09:35.147Z,32.84
2019-06-27T13:12:32.625Z,32.62
2019-06-27T13:15:28.183Z,32.72
2019-06-27T13:18:25.001Z,32.89
2019-06-27T13:21:21.038Z,32.98
2019-06-27T13:24:17.201Z,33.04
2019-06-27T13:27:12.767Z,32.88
2019-06-27T13:30:10.554Z,32.68
2019-06-27T13:33:10.589Z,32.53
2019-06-27T13:36:07.251Z,32.79
2019-06-27T13:39:06.145Z,33.04
2019-06-27T13:41:59.565Z,33.17
2019-06-27T13:44:56.228Z,33.53
2019-06-27T13:47:51.958Z,33.64
2019-06-27T13:50:49.238Z,33.35
2019-06-27T13:53:45.979Z,33.40
2019-06-27T13:56:46.880Z,33.49
2019-06-27T13:59:42.842Z,33.75
2019-06-27T14:02:39.660Z,33.92
2019-06-27T14:05:41.056Z,34.20
2019-06-27T14:08:36.251Z,34.32
2019-06-27T14:11:33.837Z,34.41
2019-06-27T14:14:29.621Z,34.97
2019-06-27T14:17:25.813Z,34.72
2019-06-27T14:20:21.737Z,34.72
2019-06-27T14:23:18.462Z,34.91
2019-06-27T14:26:13.865Z,34.64
2019-06-27T14:29:10.781Z,34.57
2019-06-27T14:32:07.772Z,34.93
2019-06-27T14:35:14.745Z,35.35
2019-06-27T14:37:59.563Z,35.23
2019-06-27T14:41:05.112Z,35.77
2019-06-27T14:44:00.661Z,36.10
2019-06-27T14:47:07.468Z,36.50
2019-06-27T14:50:03.460Z,36.84
2019-06-27T14:53:01.561Z,37.26
2019-06-27T14:55:58.226Z,37.55
2019-06-27T14:58:57.327Z,37.46
2019-06-27T15:01:54.039Z,37.39
2019-06-27T15:04:50.852Z,37.31
2019-06-27T15:07:46.113Z,36.92
2019-06-27T15:10:42.674Z,36.94
2019-06-27T15:13:38.434Z,36.78
2019-06-27T15:16:34.974Z,36.35
2019-06-27T15:19:30.554Z,35.90
2019-06-27T15:22:27.179Z,35.90
2019-06-27T15:25:22.466Z,35.80
2019-06-27T15:28:18.368Z,35.27
2019-06-27T15:31:13.914Z,34.88
2019-06-27T15:34:10.426Z,34.88
2019-06-27T15:37:06.100Z,35.15
2019-06-27T15:40:02.793Z,34.96
2019-06-27T15:42:59.334Z,35.21
2019-06-27T15:45:55.934Z,35.05
2019-06-27T15:48:51.530Z,35.30
2019-06-27T15:51:49.124Z,35.08
2019-06-27T15:54:45.795Z,34.92
2019-06-27T15:57:42.569Z,34.66
2019-06-27T16:00:39.698Z,34.44
2019-06-27T16:03:37.082Z,34.01
2019-06-27T16:06:32.395Z,33.93
2019-06-27T16:09:29.107Z,33.62
2019-06-27T16:12:25.890Z,33.71
2019-06-27T16:15:23.626Z,33.93
2019-06-27T16:18:19.439Z,33.87
2019-06-27T16:21:16.040Z,33.73
2019-06-27T16:24:12.697Z,33.69
2019-06-27T16:27:08.493Z,33.79
2019-06-27T16:30:04.728Z,33.67
2019-06-27T16:33:01.148Z,33.19
2019-06-27T16:35:56.776Z,32.86
2019-06-27T16:38:52.437Z,32.77
2019-06-27T16:41:49.201Z,32.46
2019-06-27T16:44:44.945Z,32.26
2019-06-27T16:47:41.545Z,32.14
2019-06-27T16:50:37.422Z,31.95
2019-06-27T16:53:34.992Z,31.72
2019-06-27T16:56:31.941Z,31.57
2019-06-27T16:59:29.644Z,31.47
2019-06-27T17:02:25.211Z,31.41
2019-06-27T17:05:22.157Z,31.23
2019-06-27T17:08:17.608Z,31.10
2019-06-27T17:11:14.408Z,30.98
2019-06-27T17:14:11.983Z,30.94
2019-06-27T17:17:07.879Z,30.85
2019-06-27T17:20:04.587Z,30.74
2019-06-27T17:23:05.710Z,30.65
2019-06-27T17:26:02.078Z,30.54
2019-06-27T17:28:58.277Z,30.48
2019-06-27T17:31:55.116Z,30.32
2019-06-27T17:34:51.815Z,30.22
2019-06-27T17:37:48.125Z,30.16
2019-06-27T17:40:44.739Z,30.10
2019-06-27T17:43:41.688Z,30.01
2019-06-27T17:46:37.993Z,29.96
2019-06-27T17:49:33.725Z,29.91
2019-06-27T17:52:31.496Z,29.81
2019-06-27T17:55:25.685Z,29.77
2019-06-27T17:58:23.840Z,29.70
2019-06-27T18:01:20.556Z,29.62
2019-06-27T18:04:17.168Z,29.57
2019-06-27T18:07:14.973Z,29.51
2019-06-27T18:10:09.711Z,29.22
2019-06-27T18:13:06.279Z,28.94
2019-06-27T18:16:02.251Z,28.73
2019-06-27T18:19:00.749Z,28.54
2019-06-27T18:21:54.851Z,28.33
2019-06-27T18:24:51.450Z,28.18
2019-06-27T18:27:48.176Z,28.10
2019-06-27T18:30:47.536Z,28.00
2019-06-27T18:33:42.998Z,27.86
2019-06-27T18:36:39.697Z,27.80
2019-06-27T18:39:35.484Z,27.83
2019-06-27T18:42:35.331Z,27.77
2019-06-27T18:45:31.157Z,27.71
2019-06-27T18:48:28.486Z,27.48
2019-06-27T18:51:24.046Z,27.41
2019-06-27T18:54:20.497Z,27.39
2019-06-27T18:57:17.159Z,27.33
2019-06-27T19:00:13.773Z,27.26
2019-06-27T19:03:09.726Z,27.24
2019-06-27T19:06:06.420Z,27.22
2019-06-27T19:09:02.590Z,27.13
2019-06-27T19:11:58.304Z,27.08
2019-06-27T19:14:54.842Z,27.01
2019-06-27T19:17:50.099Z,26.89
2019-06-27T19:20:50.376Z,26.66
2019-06-27T19:23:53.626Z,26.51
2019-06-27T19:26:50.591Z,26.44
2019-06-27T19:29:47.061Z,26.44
2019-06-27T19:32:42.201Z,26.39
2019-06-27T19:35:39.898Z,26.30
2019-06-27T19:38:35.599Z,26.24
2019-06-27T19:41:32.264Z,26.19
2019-06-27T19:44:28.245Z,26.10
2019-06-27T19:47:24.085Z,26.03
2019-06-27T19:50:20.049Z,25.95
2019-06-27T19:53:16.615Z,25.94
2019-06-27T19:56:13.832Z,25.83
2019-06-27T19:59:11.693Z,25.68
2019-06-27T20:02:08.566Z,25.50
2019-06-27T20:05:05.399Z,25.37
2019-06-27T20:08:17.299Z,25.23
2019-06-27T20:10:58.202Z,25.11
2019-06-27T20:13:53.800Z,25.01
2019-06-27T20:16:51.564Z,24.92
2019-06-27T20:19:47.764Z,24.78
2019-06-27T20:22:43.343Z,24.65
2019-06-27T20:25:40.535Z,24.54
2019-06-27T20:28:36.239Z,24.46
2019-06-27T20:31:31.983Z,24.39
2019-06-27T20:34:27.550Z,24.30
2019-06-27T20:37:26.941Z,24.15
2019-06-27T20:40:21.214Z,24.03
2019-06-27T20:43:16.961Z,23.96
2019-06-27T20:46:14.615Z,23.99
2019-06-27T20:49:09.828Z,24.03
2019-06-27T20:52:06.446Z,24.05
2019-06-27T20:55:02.219Z,24.03
2019-06-27T20:57:59.075Z,24.01
2019-06-27T21:00:55.747Z,23.95
2019-06-27T21:03:52.050Z,23.85
2019-06-27T21:06:48.635Z,23.79
2019-06-27T21:09:45.372Z,23.77
2019-06-27T21:12:42.269Z,23.72
2019-06-27T21:15:38.185Z,23.67
2019-06-27T21:18:34.832Z,23.60
2019-06-27T21:21:30.490Z,23.52
2019-06-27T21:24:27.186Z,23.42
2019-06-27T21:27:23.673Z,23.34
2019-06-27T21:30:20.255Z,23.26
2019-06-27T21:33:20.037Z,23.12
2019-06-27T21:36:17.819Z,23.03
2019-06-27T21:39:13.709Z,22.94
2019-06-27T21:42:10.581Z,22.84
2019-06-27T21:45:06.178Z,22.72
2019-06-27T21:48:04.788Z,22.72
2019-06-27T21:51:00.717Z,22.67
2019-06-27T21:53:56.841Z,22.63
2019-06-27T21:56:52.936Z,22.55
2019-06-27T21:59:50.304Z,22.50
2019-06-27T22:02:45.122Z,22.52
2019-06-27T22:05:41.932Z,22.55
2019-06-27T22:08:38.733Z,22.50
2019-06-27T22:11:35.247Z,22.41
2019-06-27T22:14:31.809Z,22.31
2019-06-27T22:17:28.330Z,22.19
2019-06-27T22:20:25.665Z,22.14
2019-06-27T22:23:21.175Z,22.10
2019-06-27T22:26:17.479Z,22.03
2019-06-27T22:29:13.452Z,21.97
2019-06-27T22:32:10.422Z,21.87
2019-06-27T22:35:06.351Z,21.79
2019-06-27T22:38:16.549Z,21.74
2019-06-27T22:41:25.741Z,21.66
2019-06-27T22:44:33.649Z,21.51
2019-06-27T22:47:43.356Z,21.49
2019-06-27T22:50:51.241Z,21.43
2019-06-27T22:53:50.966Z,21.37
2019-06-27T22:56:46.445Z,21.29
2019-06-27T22:59:43.493Z,21.28
2019-06-27T23:02:39.314Z,21.23
2019-06-27T23:05:35.011Z,21.15
2019-06-27T23:08:32.861Z,21.06
2019-06-27T23:11:28.658Z,20.97
2019-06-27T23:14:25.491Z,20.88
2019-06-27T23:17:20.960Z,20.78
2019-06-27T23:20:18.086Z,20.70
2019-06-27T23:23:13.765Z,20.67
2019-06-27T23:26:10.433Z,20.61
2019-06-27T23:29:07.017Z,20.55
2019-06-27T23:32:03.625Z,20.56
2019-06-27T23:34:59.100Z,20.55
2019-06-27T23:37:56.673Z,20.46
2019-06-27T23:40:52.179Z,20.47
2019-06-27T23:43:48.541Z,20.49
2019-06-27T23:46:55.449Z,20.48
2019-06-27T23:49:52.006Z,20.45
2019-06-27T23:52:48.199Z,20.38
2019-06-27T23:55:43.859Z,20.33
2019-06-27T23:58:41.464Z,20.30
